createdAt,value
2022-12-28T00:04:06.373Z,7.30
2022-12-28T00:06:34.491Z,7.20
2022-12-28T00:09:02.686Z,7.40
2022-12-28T00:11:31.074Z,7.10
2022-12-28T00:14:02.564Z,7.10
2022-12-28T00:16:32.297Z,7.10
2022-12-28T00:19:01.269Z,7.80
2022-12-28T00:21:29.107Z,7.10
2022-12-28T00:23:58.400Z,7.00
2022-12-28T00:26:26.946Z,7.40
2022-12-28T00:28:58.318Z,7.10
2022-12-28T00:31:30.592Z,7.60
2022-12-28T00:33:57.502Z,7.00
2022-12-28T00:36:24.512Z,7.00
2022-12-28T00:39:11.564Z,7.00
2022-12-28T00:41:38.609Z,7.40
2022-12-28T00:44:08.487Z,7.00
2022-12-28T00:46:36.076Z,7.00
2022-12-28T00:49:03.460Z,7.20
2022-12-28T00:51:30.480Z,6.90
2022-12-28T00:53:57.343Z,6.90
2022-12-28T00:56:24.375Z,7.00
2022-12-28T00:58:57.586Z,6.90
2022-12-28T01:01:25.829Z,7.10
2022-12-28T01:03:56.860Z,6.90
2022-12-28T01:06:25.882Z,7.00
2022-12-28T01:08:52.983Z,8.20
2022-12-28T01:11:24.701Z,7.80
2022-12-28T01:13:55.145Z,7.80
2022-12-28T01:16:29.263Z,8.00
2022-12-28T01:18:58.883Z,8.40
2022-12-28T01:21:28.362Z,7.00
2022-12-28T01:23:58.062Z,7.00
2022-12-28T01:26:26.504Z,7.00
2022-12-28T01:28:53.770Z,8.50
2022-12-28T01:31:21.550Z,7.00
2022-12-28T01:33:49.284Z,7.00
2022-12-28T01:36:31.543Z,7.00
2022-12-28T01:39:00.987Z,7.00
2022-12-28T01:41:29.505Z,7.00
2022-12-28T01:43:56.338Z,7.00
2022-12-28T01:46:46.183Z,7.00
2022-12-28T01:49:31.952Z,7.00
2022-12-28T01:52:04.844Z,7.70
2022-12-28T01:54:44.186Z,7.00
2022-12-28T01:57:11.819Z,7.00
2022-12-28T01:59:45.907Z,9.50
2022-12-28T02:02:13.917Z,7.00
2022-12-28T02:04:42.067Z,7.30
2022-12-28T02:07:09.577Z,7.10
2022-12-28T02:09:40.516Z,7.30
2022-12-28T02:12:09.782Z,7.00
2022-12-28T02:14:37.358Z,7.00
2022-12-28T02:17:04.279Z,7.00
2022-12-28T02:19:52.129Z,7.30
2022-12-28T02:22:31.234Z,8.20
2022-12-28T02:25:12.623Z,7.10
2022-12-28T02:27:52.512Z,7.10
2022-12-28T02:30:19.738Z,7.50
2022-12-28T02:33:07.988Z,7.10
2022-12-28T02:35:50.625Z,7.10
2022-12-28T02:38:36.681Z,7.70
2022-12-28T02:41:20.479Z,7.10
2022-12-28T02:43:48.284Z,7.10
2022-12-28T02:46:48.659Z,8.00
2022-12-28T02:49:38.235Z,7.20
2022-12-28T02:52:18.724Z,7.00
2022-12-28T02:55:10.944Z,7.10
2022-12-28T02:57:51.683Z,7.10
2022-12-28T03:00:20.451Z,7.10
2022-12-28T03:02:59.633Z,7.70
2022-12-28T03:06:07.757Z,7.20
2022-12-28T03:09:01.259Z,7.20
2022-12-28T03:11:56.846Z,7.30
2022-12-28T03:14:36.563Z,7.20
2022-12-28T03:17:24.997Z,7.30
2022-12-28T03:20:15.933Z,7.30
2022-12-28T03:23:02.675Z,7.30
2022-12-28T03:25:52.789Z,7.30
2022-12-28T03:28:48.122Z,7.90
2022-12-28T03:31:18.965Z,7.60
2022-12-28T03:33:54.273Z,7.60
2022-12-28T03:36:21.108Z,7.40
2022-12-28T03:39:06.990Z,7.80
2022-12-28T03:41:38.540Z,7.30
2022-12-28T03:44:32.387Z,8.10
2022-12-28T03:47:10.850Z,7.50
2022-12-28T03:49:38.962Z,7.40
2022-12-28T03:52:08.055Z,7.40
2022-12-28T03:54:35.372Z,8.10
2022-12-28T03:57:02.328Z,7.40
2022-12-28T03:59:33.393Z,8.70
2022-12-28T04:02:02.047Z,9.00
2022-12-28T04:04:30.795Z,7.40
2022-12-28T04:06:57.691Z,7.40
2022-12-28T04:11:52.984Z,7.30
2022-12-28T04:14:27.774Z,8.90
2022-12-28T04:16:54.814Z,9.40
2022-12-28T04:21:49.220Z,7.40
2022-12-28T04:24:16.114Z,7.40
2022-12-28T04:26:43.135Z,7.40
2022-12-28T04:29:11.615Z,7.40
2022-12-28T04:31:45.184Z,7.40
2022-12-28T04:34:18.864Z,7.50
2022-12-28T04:36:53.232Z,7.80
2022-12-28T04:39:22.100Z,7.40
2022-12-28T04:41:49.085Z,7.40
2022-12-28T04:44:15.963Z,8.60
2022-12-28T04:46:42.893Z,8.20
2022-12-28T04:49:09.758Z,7.40
2022-12-28T04:51:36.636Z,7.40
2022-12-28T04:54:03.690Z,7.40
2022-12-28T04:56:30.614Z,7.40
2022-12-28T04:58:59.612Z,8.00
2022-12-28T05:01:26.930Z,7.40
2022-12-28T05:03:58.092Z,8.50
2022-12-28T05:06:27.799Z,7.40
2022-12-28T05:08:56.751Z,9.00
2022-12-28T05:11:27.822Z,8.30
2022-12-28T05:13:55.113Z,7.40
2022-12-28T05:16:25.104Z,7.90
2022-12-28T05:18:52.045Z,7.50
2022-12-28T05:21:21.568Z,8.00
2022-12-28T05:23:49.330Z,8.10
2022-12-28T05:26:19.315Z,7.60
2022-12-28T05:28:46.749Z,7.60
2022-12-28T05:31:17.295Z,7.60
2022-12-28T05:33:44.463Z,7.60
2022-12-28T05:36:17.051Z,7.60
2022-12-28T05:38:44.557Z,8.00
2022-12-28T05:41:17.047Z,8.10
2022-12-28T05:43:44.613Z,8.70
2022-12-28T05:46:14.234Z,8.40
2022-12-28T05:48:42.709Z,7.70
2022-12-28T05:51:15.141Z,7.70
2022-12-28T05:53:42.751Z,9.20
2022-12-28T05:56:14.544Z,8.00
2022-12-28T05:58:42.687Z,9.70
2022-12-28T06:01:18.575Z,8.00
2022-12-28T06:03:47.447Z,8.10
2022-12-28T06:06:16.797Z,8.20
2022-12-28T06:08:44.938Z,8.20
2022-12-28T06:11:14.677Z,8.50
2022-12-28T06:13:41.919Z,8.80
2022-12-28T06:16:11.133Z,8.80
2022-12-28T06:18:38.254Z,8.90
2022-12-28T06:21:07.937Z,10.10
2022-12-28T06:23:35.432Z,8.80
2022-12-28T06:26:04.700Z,9.10
2022-12-28T06:28:31.828Z,9.10
2022-12-28T06:31:24.848Z,9.00
2022-12-28T06:33:57.269Z,8.90
2022-12-28T06:36:32.805Z,8.90
2022-12-28T06:39:01.051Z,8.80
2022-12-28T06:41:29.025Z,9.60
2022-12-28T06:43:57.067Z,9.10
2022-12-28T06:46:25.919Z,9.20
2022-12-28T06:48:53.153Z,9.00
2022-12-28T06:51:31.609Z,10.50
2022-12-28T06:53:58.549Z,9.00
2022-12-28T06:56:27.820Z,8.90
2022-12-28T06:59:02.132Z,8.90
2022-12-28T07:01:32.393Z,8.80
2022-12-28T07:04:00.797Z,9.00
2022-12-28T07:06:29.296Z,9.00
2022-12-28T07:09:01.106Z,8.80
2022-12-28T07:11:29.122Z,9.40
2022-12-28T07:13:56.423Z,9.00
2022-12-28T07:16:24.954Z,8.90
2022-12-28T07:18:51.938Z,9.60
2022-12-28T07:21:28.080Z,8.80
2022-12-28T07:23:56.804Z,8.80
2022-12-28T07:26:31.120Z,8.70
2022-12-28T07:28:59.709Z,8.70
2022-12-28T07:31:30.278Z,9.30
2022-12-28T07:33:59.382Z,8.90
2022-12-28T07:36:28.652Z,8.80
2022-12-28T07:38:55.657Z,9.00
2022-12-28T07:41:30.979Z,8.90
2022-12-28T07:43:59.175Z,8.80
2022-12-28T07:46:33.203Z,8.80
2022-12-28T07:49:01.279Z,8.70
2022-12-28T07:51:30.625Z,8.70
2022-12-28T07:53:58.908Z,8.90
2022-12-28T07:56:27.319Z,9.10
2022-12-28T07:58:56.891Z,9.00
2022-12-28T08:01:26.169Z,9.10
2022-12-28T08:03:55.370Z,9.30
2022-12-28T08:08:54.416Z,9.10
2022-12-28T08:11:23.655Z,9.30
2022-12-28T08:13:52.171Z,9.50
2022-12-28T08:16:20.591Z,9.40
2022-12-28T08:18:49.139Z,10.00
2022-12-28T08:21:25.331Z,9.70
2022-12-28T08:23:52.289Z,10.00
2022-12-28T08:26:22.474Z,9.90
2022-12-28T08:28:53.306Z,9.90
2022-12-28T08:31:23.168Z,9.70
2022-12-28T08:33:50.723Z,9.70
2022-12-28T08:36:17.578Z,9.70
2022-12-28T08:38:45.776Z,9.80
2022-12-28T08:41:15.407Z,10.20
2022-12-28T08:43:42.745Z,9.90
2022-12-28T08:46:19.059Z,9.80
2022-12-28T08:48:47.857Z,9.70
2022-12-28T08:51:24.263Z,9.60
2022-12-28T08:53:51.662Z,9.70
2022-12-28T08:56:22.707Z,9.80
2022-12-28T08:58:50.339Z,9.80
2022-12-28T09:01:27.598Z,9.70
2022-12-28T09:03:56.500Z,11.30
2022-12-28T09:06:31.433Z,10.10
2022-12-28T09:09:05.993Z,9.70
2022-12-28T09:11:34.961Z,9.70
2022-12-28T09:14:02.937Z,9.70
2022-12-28T09:16:30.097Z,9.70
2022-12-28T09:18:59.741Z,9.70
2022-12-28T09:21:29.788Z,9.70
2022-12-28T09:23:56.947Z,9.60
2022-12-28T09:26:26.224Z,10.30
2022-12-28T09:28:55.685Z,10.40
2022-12-28T09:31:25.992Z,10.30
2022-12-28T09:34:35.145Z,9.50
2022-12-28T09:36:46.053Z,9.40
2022-12-28T09:39:19.363Z,9.40
2022-12-28T09:41:52.521Z,9.40
2022-12-28T09:44:49.811Z,9.50
2022-12-28T09:47:28.840Z,9.40
2022-12-28T09:50:16.753Z,9.60
2022-12-28T09:52:59.041Z,9.60
2022-12-28T09:55:27.152Z,9.70
2022-12-28T09:57:57.277Z,9.70
2022-12-28T10:00:47.789Z,10.10
2022-12-28T10:03:24.922Z,9.70
2022-12-28T10:05:52.256Z,9.80
2022-12-28T10:08:22.529Z,9.80
2022-12-28T10:10:50.322Z,9.90
2022-12-28T10:13:45.936Z,10.00
2022-12-28T10:16:18.827Z,10.00
2022-12-28T10:18:48.635Z,9.90
2022-12-28T10:21:19.060Z,9.90
2022-12-28T10:24:20.989Z,9.80
2022-12-28T10:26:35.555Z,9.80
2022-12-28T10:29:02.501Z,9.90
2022-12-28T10:31:39.489Z,10.00
2022-12-28T10:34:24.518Z,9.90
2022-12-28T10:36:54.292Z,10.20
2022-12-28T10:39:27.868Z,10.10
2022-12-28T10:41:56.622Z,10.10
2022-12-28T10:44:40.965Z,10.10
2022-12-28T10:47:35.944Z,10.10
2022-12-28T10:52:58.546Z,10.10
2022-12-28T10:55:31.323Z,10.10
2022-12-28T10:58:31.673Z,10.60
2022-12-28T11:01:07.042Z,10.10
2022-12-28T11:03:37.935Z,10.30
2022-12-28T11:06:26.344Z,10.20
2022-12-28T11:09:16.774Z,10.30
2022-12-28T11:11:46.000Z,10.20
2022-12-28T11:14:36.134Z,10.30
2022-12-28T11:17:37.617Z,10.40
2022-12-28T11:20:18.905Z,10.30
2022-12-28T11:22:46.813Z,10.30
2022-12-28T11:25:18.985Z,10.30
2022-12-28T11:27:48.140Z,10.30
2022-12-28T11:30:18.073Z,10.70
2022-12-28T11:32:52.964Z,10.40
2022-12-28T11:35:24.109Z,10.60
2022-12-28T11:37:53.506Z,10.50
2022-12-28T11:40:42.461Z,10.40
2022-12-28T11:43:39.638Z,10.40
2022-12-28T11:46:28.022Z,10.40
2022-12-28T11:48:54.909Z,10.30
2022-12-28T11:51:22.704Z,10.30
2022-12-28T11:54:26.438Z,13.10
2022-12-28T11:59:33.751Z,10.40
2022-12-28T12:02:02.814Z,10.50
2022-12-28T12:09:38.724Z,10.50
2022-12-28T12:12:18.010Z,10.30
2022-12-28T12:15:11.190Z,10.10
2022-12-28T12:17:46.990Z,10.30
2022-12-28T12:20:30.411Z,11.30
2022-12-28T12:23:05.663Z,10.80
2022-12-28T12:25:40.547Z,10.70
2022-12-28T12:28:17.361Z,10.50
2022-12-28T12:30:46.113Z,10.60
2022-12-28T12:33:19.777Z,11.70
2022-12-28T12:36:20.299Z,10.60
2022-12-28T12:39:05.622Z,10.50
2022-12-28T12:41:59.919Z,10.50
2022-12-28T12:44:46.499Z,10.50
2022-12-28T12:47:47.888Z,10.50
2022-12-28T12:50:22.191Z,10.50
2022-12-28T12:53:04.060Z,10.50
2022-12-28T12:55:44.771Z,10.60
2022-12-28T12:58:28.580Z,10.60
2022-12-28T13:03:44.727Z,10.60
2022-12-28T13:06:16.676Z,10.50
2022-12-28T13:09:05.713Z,13.90
2022-12-28T13:11:37.888Z,10.70
2022-12-28T13:14:05.850Z,10.70
2022-12-28T13:16:35.288Z,10.70
2022-12-28T13:19:07.167Z,10.60
2022-12-28T13:21:43.362Z,10.60
2022-12-28T13:24:25.895Z,10.50
2022-12-28T13:26:58.781Z,10.50
2022-12-28T13:29:28.235Z,10.50
2022-12-28T13:31:57.767Z,10.50
2022-12-28T13:34:36.066Z,12.30
2022-12-28T13:37:14.124Z,10.40
2022-12-28T13:40:06.464Z,10.40
2022-12-28T13:43:01.601Z,10.30
2022-12-28T13:47:57.191Z,10.30
2022-12-28T13:50:27.981Z,10.30
2022-12-28T13:53:02.480Z,13.50
2022-12-28T13:55:36.591Z,10.20
2022-12-28T13:58:11.354Z,10.40
2022-12-28T14:00:39.631Z,10.60
2022-12-28T14:03:11.712Z,10.60
2022-12-28T14:05:43.847Z,10.90
2022-12-28T14:13:08.352Z,10.90
2022-12-28T14:15:41.400Z,10.80
2022-12-28T14:21:03.989Z,10.70
2022-12-28T14:23:37.104Z,10.40
2022-12-28T14:26:19.044Z,13.10
2022-12-28T14:28:53.013Z,10.40
2022-12-28T14:31:22.463Z,10.50
2022-12-28T14:33:53.661Z,12.40
2022-12-28T14:36:45.207Z,10.50
2022-12-28T14:39:27.068Z,10.50
2022-12-28T14:41:58.327Z,10.50
2022-12-28T14:44:35.939Z,13.80
2022-12-28T14:49:35.802Z,10.40
2022-12-28T14:52:10.980Z,10.60
2022-12-28T14:54:49.818Z,12.70
2022-12-28T14:57:40.431Z,10.60
2022-12-28T15:00:30.707Z,10.50
2022-12-28T15:03:12.844Z,10.60
2022-12-28T15:08:10.078Z,10.60
2022-12-28T15:10:42.168Z,10.60
2022-12-28T15:21:21.306Z,10.40
2022-12-28T15:25:48.519Z,10.30
2022-12-28T15:40:02.606Z,10.00
2022-12-28T15:46:29.622Z,9.90
2022-12-28T15:52:42.137Z,9.80
2022-12-28T16:03:03.262Z,9.80
2022-12-28T16:05:51.920Z,9.80
2022-12-28T16:09:32.319Z,9.70
2022-12-28T16:15:41.728Z,9.70
2022-12-28T16:24:31.190Z,9.70
2022-12-28T16:50:36.581Z,9.60
2022-12-28T16:54:23.492Z,9.60
2022-12-28T17:09:54.673Z,9.60
2022-12-28T17:18:47.530Z,9.60
2022-12-28T17:28:15.318Z,9.50
2022-12-28T17:32:17.746Z,9.50
2022-12-28T17:38:04.734Z,11.90
2022-12-28T17:40:42.929Z,9.50
2022-12-28T17:55:35.464Z,9.50
2022-12-28T17:58:07.164Z,12.40
2022-12-28T18:05:41.336Z,9.60
2022-12-28T18:08:12.661Z,9.60
2022-12-28T18:15:44.326Z,9.60
2022-12-28T18:21:17.865Z,9.60
2022-12-28T18:23:59.635Z,9.60
2022-12-28T18:26:27.548Z,9.60
2022-12-28T18:49:06.925Z,9.60
2022-12-28T18:59:00.154Z,9.60
2022-12-28T19:16:56.076Z,9.70
2022-12-28T19:31:51.841Z,9.70
2022-12-28T19:46:43.952Z,9.80
2022-12-28T19:54:08.599Z,9.80
2022-12-28T20:04:13.506Z,9.80
2022-12-28T20:06:43.132Z,9.80
2022-12-28T20:09:11.339Z,9.80
2022-12-28T20:14:06.672Z,9.80
2022-12-28T20:16:35.338Z,9.80
2022-12-28T20:19:10.787Z,9.80
2022-12-28T20:21:39.196Z,10.00
2022-12-28T20:24:06.713Z,9.90
2022-12-28T20:29:16.357Z,9.90
2022-12-28T20:31:43.432Z,13.50
2022-12-28T20:34:13.764Z,12.10
2022-12-28T20:44:25.950Z,10.00
2022-12-28T20:46:54.106Z,10.00
2022-12-28T20:51:55.825Z,10.00
2022-12-28T21:06:54.184Z,10.10
2022-12-28T21:33:56.061Z,10.90
2022-12-28T21:41:39.071Z,10.70
2022-12-28T21:44:07.392Z,10.60
2022-12-28T21:51:38.307Z,10.40
2022-12-28T21:54:15.354Z,12.50
2022-12-28T21:56:43.976Z,10.50
2022-12-28T21:59:14.026Z,12.30
2022-12-28T22:02:00.960Z,11.30
2022-12-28T22:07:17.169Z,10.50
2022-12-28T22:10:02.554Z,12.80
2022-12-28T22:12:38.546Z,12.20
2022-12-28T22:15:27.651Z,11.40
2022-12-28T22:18:06.229Z,10.70
2022-12-28T22:20:35.315Z,10.70
2022-12-28T22:25:30.984Z,10.90
2022-12-28T22:40:15.645Z,10.90
2022-12-28T22:42:43.867Z,10.80
2022-12-28T22:45:12.295Z,10.80
2022-12-28T22:50:09.178Z,10.80
2022-12-28T23:04:52.908Z,10.80
2022-12-28T23:22:58.357Z,10.90
2022-12-28T23:25:44.920Z,11.30
2022-12-28T23:28:14.646Z,11.00
2022-12-28T23:30:45.469Z,11.10
2022-12-28T23:43:01.510Z,11.10
2022-12-28T23:50:23.036Z,11.20
